Time,TemperatureF,DewpointF,PressureIn,WindDirection,WindDirectionDegrees,WindSpeedMPH,WindSpeedGustMPH,Humidity,HourlyPrecipIn,Conditions,Clouds,dailyrainin,SoftwareType,DateUTC
2013-05-19 00:02:00,50.6,49.5,30.34,NW,323,2.0,9.0,96,0.00,,,0.00,Wunderground v.1.15,2013-05-19 07:02:00,
2013-05-19 00:08:00,50.7,49.6,30.34,NW,322,2.0,9.0,96,0.00,,,0.00,Wunderground v.1.15,2013-05-19 07:08:00,
2013-05-19 00:14:00,50.9,49.8,30.34,NNW,346,3.0,8.0,96,0.00,,,0.00,Wunderground v.1.15,2013-05-19 07:14:00,
2013-05-19 00:20:00,50.9,49.5,30.34,NNW,329,5.0,5.0,95,0.00,,,0.00,Wunderground v.1.15,2013-05-19 07:20:00,
2013-05-19 00:25:00,51.1,49.7,30.35,NNW,335,6.0,9.0,95,0.00,,,0.00,Wunderground v.1.15,2013-05-19 07:25:00,
2013-05-19 00:31:00,51.2,49.8,30.35,NNW,336,6.0,11.0,95,0.00,,,0.00,Wunderground v.1.15,2013-05-19 07:31:00,
2013-05-19 00:36:00,51.3,49.9,30.35,North,360,7.0,11.0,95,0.00,,,0.00,Wunderground v.1.15,2013-05-19 07:36:00,
2013-05-19 00:41:00,51.3,49.6,30.35,NNW,344,7.0,7.0,94,0.00,,,0.00,Wunderground v.1.15,2013-05-19 07:41:00,
2013-05-19 00:46:00,51.3,49.6,30.35,NNW,335,7.0,8.0,94,0.00,,,0.00,Wunderground v.1.15,2013-05-19 07:46:00,
2013-05-19 00:52:00,51.5,49.8,30.35,NNW,346,6.0,7.0,94,0.00,,,0.00,Wunderground v.1.15,2013-05-19 07:52:00,
2013-05-19 00:58:00,51.5,49.5,30.35,NNW,345,7.0,9.0,93,0.00,,,0.00,Wunderground v.1.15,2013-05-19 07:58:00,
2013-05-19 01:03:00,51.5,49.5,30.35,North,355,8.0,10.0,93,0.00,,,0.00,Wunderground v.1.15,2013-05-19 08:03:00,
2013-05-19 01:09:00,51.6,49.6,30.35,North,360,8.0,10.0,93,0.00,,,0.00,Wunderground v.1.15,2013-05-19 08:09:00,
2013-05-19 01:14:00,51.6,49.6,30.35,NNW,342,7.0,8.0,93,0.00,,,0.00,Wunderground v.1.15,2013-05-19 08:14:00,
2013-05-19 01:20:00,51.5,49.5,30.35,NNW,344,7.0,7.0,93,0.00,,,0.00,Wunderground v.1.15,2013-05-19 08:20:00,
2013-05-19 01:26:00,51.5,49.5,30.35,North,355,6.0,7.0,93,0.00,,,0.00,Wunderground v.1.15,2013-05-19 08:26:00,
2013-05-19 01:32:00,51.6,49.6,30.35,NNW,342,6.0,6.0,93,0.00,,,0.00,Wunderground v.1.15,2013-05-19 08:32:00,
2013-05-19 01:37:00,51.7,49.7,30.35,North,355,6.0,7.0,93,0.00,,,0.00,Wunderground v.1.15,2013-05-19 08:37:00,
2013-05-19 01:43:00,51.6,49.6,30.35,North,349,6.0,7.0,93,0.00,,,0.00,Wunderground v.1.15,2013-05-19 08:43:00,
2013-05-19 01:49:00,51.6,49.6,30.35,NNW,346,6.0,8.0,93,0.00,,,0.00,Wunderground v.1.15,2013-05-19 08:49:00,
2013-05-19 01:55:00,51.5,49.5,30.36,NNW,341,6.0,8.0,93,0.00,,,0.00,Wunderground v.1.15,2013-05-19 08:55:00,
2013-05-19 02:01:00,51.7,49.7,30.36,NNW,344,6.0,8.0,93,0.00,,,0.00,Wunderground v.1.15,2013-05-19 09:01:00,
2013-05-19 02:06:00,51.6,49.6,30.36,NNW,342,7.0,9.0,93,0.00,,,0.00,Wunderground v.1.15,2013-05-19 09:06:00,
2013-05-19 02:12:00,51.6,49.6,30.36,NNW,334,7.0,7.0,93,0.00,,,0.00,Wunderground v.1.15,2013-05-19 09:12:00,
2013-05-19 02:17:00,51.6,49.6,30.36,North,360,7.0,10.0,93,0.00,,,0.00,Wunderground v.1.15,2013-05-19 09:17:00,
2013-05-19 02:23:00,51.4,49.4,30.36,North,349,8.0,9.0,93,0.00,,,0.00,Wunderground v.1.15,2013-05-19 09:23:00,
2013-05-19 02:28:00,51.5,49.5,30.36,NNW,342,9.0,10.0,93,0.00,,,0.00,Wunderground v.1.15,2013-05-19 09:28:00,
2013-05-19 02:34:00,51.3,49.6,30.36,North,360,9.0,12.0,94,0.00,,,0.00,Wunderground v.1.15,2013-05-19 09:34:00,
2013-05-19 02:39:00,51.1,49.4,30.36,NNW,341,9.0,12.0,94,0.00,,,0.00,Wunderground v.1.15,2013-05-19 09:39:00,
2013-05-19 02:45:00,51.1,49.4,30.36,NNW,344,6.0,9.0,94,0.00,,,0.00,Wunderground v.1.15,2013-05-19 09:45:00,
2013-05-19 02:51:00,51.0,49.6,30.37,NNW,332,6.0,8.0,95,0.00,,,0.00,Wunderground v.1.15,2013-05-19 09:51:00,
2013-05-19 02:57:00,51.0,49.6,30.37,NNW,327,7.0,10.0,95,0.00,,,0.00,Wunderground v.1.15,2013-05-19 09:57:00,
2013-05-19 03:02:00,51.0,49.6,30.37,NW,322,7.0,8.0,95,0.00,,,0.00,Wunderground v.1.15,2013-05-19 10:02:00,
2013-05-19 03:08:00,51.0,49.6,30.37,NW,321,8.0,9.0,95,0.00,,,0.00,Wunderground v.1.15,2013-05-19 10:08:00,
2013-05-19 03:13:00,51.1,49.7,30.37,NW,320,9.0,12.0,95,0.00,,,0.00,Wunderground v.1.15,2013-05-19 10:13:00,
2013-05-19 03:19:00,51.1,49.7,30.37,NNW,344,9.0,12.0,95,0.00,,,0.00,Wunderground v.1.15,2013-05-19 10:19:00,
2013-05-19 03:24:00,50.9,49.5,30.37,NNW,340,9.0,12.0,95,0.00,,,0.00,Wunderground v.1.15,2013-05-19 10:24:00,
2013-05-19 03:30:00,50.9,49.5,30.37,NNW,340,10.0,10.0,95,0.00,,,0.00,Wunderground v.1.15,2013-05-19 10:30:00,
2013-05-19 03:36:00,50.7,49.3,30.37,NNW,344,8.0,11.0,95,0.00,,,0.00,Wunderground v.1.15,2013-05-19 10:36:00,
2013-05-19 03:41:00,50.8,49.7,30.37,North,349,8.0,14.0,96,0.00,,,0.00,Wunderground v.1.15,2013-05-19 10:41:00,
2013-05-19 03:47:00,50.9,49.5,30.37,NNW,342,11.0,14.0,95,0.00,,,0.00,Wunderground v.1.15,2013-05-19 10:47:00,
2013-05-19 03:53:00,50.9,49.5,30.37,North,355,12.0,13.0,95,0.00,,,0.00,Wunderground v.1.15,2013-05-19 10:53:00,
2013-05-19 03:58:00,50.8,49.4,30.37,NNW,347,11.0,15.0,95,0.00,,,0.00,Wunderground v.1.15,2013-05-19 10:58:00,
2013-05-19 04:04:00,50.9,49.5,30.37,North,355,11.0,12.0,95,0.00,,,0.00,Wunderground v.1.15,2013-05-19 11:04:00,
2013-05-19 04:09:00,50.9,49.5,30.37,NNW,336,10.0,13.0,95,0.00,,,0.00,Wunderground v.1.15,2013-05-19 11:09:00,
2013-05-19 04:15:00,50.9,49.5,30.38,North,355,11.0,14.0,95,0.00,,,0.00,Wunderground v.1.15,2013-05-19 11:15:00,
2013-05-19 04:20:00,50.9,49.5,30.38,NNW,342,11.0,11.0,95,0.00,,,0.00,Wunderground v.1.15,2013-05-19 11:20:00,
2013-05-19 04:26:00,50.8,49.4,30.38,North,355,12.0,16.0,95,0.00,,,0.00,Wunderground v.1.15,2013-05-19 11:26:00,
2013-05-19 04:31:00,50.9,49.2,30.38,North,355,14.0,14.0,94,0.00,,,0.00,Wunderground v.1.15,2013-05-19 11:31:00,
2013-05-19 04:37:00,50.9,49.2,30.38,NNW,345,15.0,19.0,94,0.00,,,0.00,Wunderground v.1.15,2013-05-19 11:37:00,
2013-05-19 04:42:00,51.0,49.3,30.38,North,355,14.0,14.0,94,0.00,,,0.00,Wunderground v.1.15,2013-05-19 11:42:00,
2013-05-19 04:48:00,50.9,49.2,30.38,North,349,14.0,16.0,94,0.00,,,0.00,Wunderground v.1.15,2013-05-19 11:48:00,
2013-05-19 04:54:00,50.8,49.1,30.38,North,355,14.0,15.0,94,0.00,,,0.00,Wunderground v.1.15,2013-05-19 11:54:00,
2013-05-19 04:59:00,50.9,49.2,30.38,North,350,13.0,15.0,94,0.00,,,0.00,Wunderground v.1.15,2013-05-19 11:59:00,
2013-05-19 05:04:00,51.0,49.3,30.38,NNW,347,13.0,17.0,94,0.00,,,0.00,Wunderground v.1.15,2013-05-19 12:04:00,
2013-05-19 05:10:00,50.8,49.1,30.38,North,360,15.0,15.0,94,0.00,,,0.00,Wunderground v.1.15,2013-05-19 12:10:00,
2013-05-19 05:16:00,50.8,49.1,30.38,North,360,15.0,17.0,94,0.00,,,0.00,Wunderground v.1.15,2013-05-19 12:16:00,
2013-05-19 05:21:00,50.7,49.0,30.38,North,5,15.0,17.0,94,0.00,,,0.00,Wunderground v.1.15,2013-05-19 12:21:00,
2013-05-19 05:27:00,50.7,49.0,30.38,North,355,15.0,17.0,94,0.00,,,0.00,Wunderground v.1.15,2013-05-19 12:27:00,
2013-05-19 05:32:00,50.4,49.0,30.38,North,9,15.0,15.0,95,0.00,,,0.00,Wunderground v.1.15,2013-05-19 12:32:00,
2013-05-19 05:37:00,50.3,48.9,30.39,North,355,14.0,16.0,95,0.00,,,0.00,Wunderground v.1.15,2013-05-19 12:37:00,
2013-05-19 05:42:00,50.0,48.9,30.39,North,355,15.0,19.0,96,0.00,,,0.00,Wunderground v.1.15,2013-05-19 12:42:00,
2013-05-19 05:48:00,50.1,49.0,30.38,North,10,14.0,19.0,96,0.00,,,0.00,Wunderground v.1.15,2013-05-19 12:48:00,
2013-05-19 05:54:00,49.9,48.8,30.38,North,355,13.0,15.0,96,0.00,,,0.00,Wunderground v.1.15,2013-05-19 12:54:00,
2013-05-19 05:59:00,49.9,48.8,30.38,North,355,13.0,15.0,96,0.00,,,0.00,Wunderground v.1.15,2013-05-19 12:59:00,
2013-05-19 06:05:00,49.8,48.7,30.38,NNW,344,13.0,17.0,96,0.00,,,0.00,Wunderground v.1.15,2013-05-19 13:05:00,
2013-05-19 06:10:00,49.9,48.5,30.38,North,355,14.0,14.0,95,0.00,,,0.00,Wunderground v.1.15,2013-05-19 13:10:00,
2013-05-19 06:16:00,50.2,48.8,30.38,NNE,16,13.0,19.0,95,0.00,,,0.00,Wunderground v.1.15,2013-05-19 13:16:00,
2013-05-19 06:21:00,50.2,48.8,30.38,NNE,12,11.0,17.0,95,0.00,,,0.00,Wunderground v.1.15,2013-05-19 13:21:00,
2013-05-19 06:27:00,50.1,48.7,30.39,North,355,11.0,17.0,95,0.00,,,0.00,Wunderground v.1.15,2013-05-19 13:27:00,
2013-05-19 06:33:00,50.0,48.6,30.39,North,350,13.0,17.0,95,0.00,,,0.00,Wunderground v.1.15,2013-05-19 13:33:00,
2013-05-19 06:38:00,49.9,48.5,30.39,North,360,13.0,17.0,95,0.00,,,0.00,Wunderground v.1.15,2013-05-19 13:38:00,
2013-05-19 06:44:00,49.9,48.2,30.39,North,350,14.0,16.0,94,0.00,,,0.00,Wunderground v.1.15,2013-05-19 13:44:00,
2013-05-19 06:49:00,50.1,48.4,30.39,North,355,15.0,22.0,94,0.00,,,0.00,Wunderground v.1.15,2013-05-19 13:49:00,
2013-05-19 06:55:00,50.1,48.2,30.39,North,355,14.0,17.0,93,0.00,,,0.00,Wunderground v.1.15,2013-05-19 13:55:00,
2013-05-19 07:00:00,50.1,48.2,30.39,NNE,18,14.0,15.0,93,0.00,,,0.00,Wunderground v.1.15,2013-05-19 14:00:00,
2013-05-19 07:06:00,50.1,48.2,30.39,NNE,19,16.0,19.0,93,0.00,,,0.00,Wunderground v.1.15,2013-05-19 14:06:00,
2013-05-19 07:12:00,50.1,48.2,30.39,North,351,14.0,15.0,93,0.00,,,0.00,Wunderground v.1.15,2013-05-19 14:12:00,
2013-05-19 07:18:00,50.2,48.0,30.40,NNW,346,14.0,16.0,92,0.00,,,0.00,Wunderground v.1.15,2013-05-19 14:18:00,
2013-05-19 07:23:00,50.5,48.0,30.40,NNW,341,14.0,16.0,91,0.00,,,0.00,Wunderground v.1.15,2013-05-19 14:23:00,
2013-05-19 07:29:00,50.5,48.3,30.40,North,10,11.0,16.0,92,0.00,,,0.00,Wunderground v.1.15,2013-05-19 14:29:00,
2013-05-19 07:34:00,50.5,47.7,30.40,North,351,10.0,17.0,90,0.00,,,0.00,Wunderground v.1.15,2013-05-19 14:34:00,
2013-05-19 07:39:00,50.6,47.8,30.40,North,355,13.0,17.0,90,0.00,,,0.00,Wunderground v.1.15,2013-05-19 14:39:00,
2013-05-19 07:45:00,50.8,47.7,30.40,NNE,15,13.0,16.0,89,0.00,,,0.00,Wunderground v.1.15,2013-05-19 14:45:00,
2013-05-19 07:50:00,50.9,47.8,30.40,NNE,22,12.0,12.0,89,0.00,,,0.00,Wunderground v.1.15,2013-05-19 14:50:00,
2013-05-19 07:56:00,51.1,47.7,30.40,NNW,348,13.0,18.0,88,0.00,,,0.00,Wunderground v.1.15,2013-05-19 14:56:00,
2013-05-19 08:02:00,51.3,48.2,30.40,North,355,12.0,13.0,89,0.00,,,0.00,Wunderground v.1.15,2013-05-19 15:02:00,
2013-05-19 08:08:00,51.2,48.1,30.41,ENE,57,7.0,13.0,89,0.00,,,0.00,Wunderground v.1.15,2013-05-19 15:08:00,
2013-05-19 08:14:00,51.1,47.7,30.41,North,5,7.0,10.0,88,0.00,,,0.00,Wunderground v.1.15,2013-05-19 15:14:00,
2013-05-19 08:19:00,51.3,47.9,30.41,NNE,32,8.0,14.0,88,0.00,,,0.00,Wunderground v.1.15,2013-05-19 15:19:00,
2013-05-19 08:25:00,51.3,47.9,30.41,North,9,9.0,16.0,88,0.00,,,0.00,Wunderground v.1.15,2013-05-19 15:25:00,
2013-05-19 08:31:00,51.5,48.1,30.41,North,355,8.0,9.0,88,0.00,,,0.00,Wunderground v.1.15,2013-05-19 15:31:00,
2013-05-19 08:37:00,51.7,48.3,30.41,NNE,31,6.0,9.0,88,0.00,,,0.00,Wunderground v.1.15,2013-05-19 15:37:00,
2013-05-19 08:43:00,51.8,48.1,30.41,North,355,6.0,7.0,87,0.00,,,0.00,Wunderground v.1.15,2013-05-19 15:43:00,
2013-05-19 08:49:00,51.9,48.2,30.41,NNW,348,6.0,13.0,87,0.00,,,0.00,Wunderground v.1.15,2013-05-19 15:49:00,
2013-05-19 08:54:00,52.0,48.3,30.41,NNW,334,7.0,9.0,87,0.00,,,0.00,Wunderground v.1.15,2013-05-19 15:54:00,
2013-05-19 08:59:00,52.0,47.9,30.41,NNW,348,7.0,10.0,86,0.00,,,0.00,Wunderground v.1.15,2013-05-19 15:59:00,
2013-05-19 09:04:00,51.8,47.7,30.41,North,355,9.0,16.0,86,0.00,,,0.00,Wunderground v.1.15,2013-05-19 16:04:00,
2013-05-19 09:10:00,51.9,48.2,30.41,North,360,11.0,11.0,87,0.00,,,0.00,Wunderground v.1.15,2013-05-19 16:10:00,
2013-05-19 09:15:00,51.9,48.2,30.41,North,351,11.0,13.0,87,0.00,,,0.00,Wunderground v.1.15,2013-05-19 16:15:00,
2013-05-19 09:20:00,52.0,48.3,30.42,North,9,9.0,9.0,87,0.00,,,0.00,Wunderground v.1.15,2013-05-19 16:20:00,
2013-05-19 09:25:00,52.0,47.9,30.42,North,360,7.0,13.0,86,0.00,,,0.00,Wunderground v.1.15,2013-05-19 16:25:00,
2013-05-19 09:31:00,51.9,47.5,30.42,NNW,348,8.0,10.0,85,0.00,,,0.00,Wunderground v.1.15,2013-05-19 16:31:00,
2013-05-19 09:37:00,51.8,46.8,30.42,North,355,9.0,14.0,83,0.00,,,0.00,Wunderground v.1.15,2013-05-19 16:37:00,
2013-05-19 09:42:00,51.9,46.9,30.42,North,351,10.0,12.0,83,0.00,,,0.00,Wunderground v.1.15,2013-05-19 16:42:00,
2013-05-19 09:47:00,52.1,47.1,30.42,North,355,8.0,12.0,83,0.00,,,0.00,Wunderground v.1.15,2013-05-19 16:47:00,
2013-05-19 09:53:00,52.3,47.3,30.41,North,360,7.0,9.0,83,0.00,,,0.00,Wunderground v.1.15,2013-05-19 16:53:00,
2013-05-19 09:59:00,52.4,47.1,30.41,North,351,8.0,12.0,82,0.00,,,0.00,Wunderground v.1.15,2013-05-19 16:59:00,
2013-05-19 10:05:00,52.3,47.0,30.41,NNE,23,10.0,13.0,82,0.00,,,0.01,Wunderground v.1.15,2013-05-19 17:05:00,
2013-05-19 10:10:00,52.5,47.2,30.41,North,355,9.0,10.0,82,0.00,,,0.01,Wunderground v.1.15,2013-05-19 17:10:00,
2013-05-19 10:16:00,52.5,46.8,30.41,North,360,9.0,13.0,81,0.00,,,0.01,Wunderground v.1.15,2013-05-19 17:16:00,
2013-05-19 10:21:00,52.6,46.9,30.41,NNE,17,10.0,10.0,81,0.00,,,0.01,Wunderground v.1.15,2013-05-19 17:21:00,
2013-05-19 10:26:00,52.5,46.5,30.41,North,360,10.0,14.0,80,0.00,,,0.01,Wunderground v.1.15,2013-05-19 17:26:00,
2013-05-19 10:31:00,52.6,46.9,30.41,NNW,338,9.0,10.0,81,0.00,,,0.01,Wunderground v.1.15,2013-05-19 17:31:00,
2013-05-19 10:37:00,53.2,47.2,30.41,North,355,6.0,10.0,80,0.00,,,0.01,Wunderground v.1.15,2013-05-19 17:37:00,
2013-05-19 10:43:00,54.0,47.6,30.41,NNE,17,7.0,11.0,79,0.00,,,0.01,Wunderground v.1.15,2013-05-19 17:43:00,
2013-05-19 10:48:00,53.9,47.2,30.41,NNW,348,8.0,13.0,78,0.00,,,0.01,Wunderground v.1.15,2013-05-19 17:48:00,
2013-05-19 10:54:00,53.2,46.5,30.41,North,360,10.0,12.0,78,0.00,,,0.01,Wunderground v.1.15,2013-05-19 17:54:00,
2013-05-19 10:59:00,53.1,47.1,30.41,North,360,11.0,13.0,80,0.00,,,0.01,Wunderground v.1.15,2013-05-19 17:59:00,
2013-05-19 11:05:00,53.0,47.3,30.41,North,351,11.0,13.0,81,0.00,,,0.01,Wunderground v.1.15,2013-05-19 18:05:00,
2013-05-19 11:11:00,52.6,47.3,30.41,North,355,12.0,12.0,82,0.00,,,0.01,Wunderground v.1.15,2013-05-19 18:11:00,
2013-05-19 11:17:00,52.9,46.9,30.41,North,351,13.0,15.0,80,0.00,,,0.01,Wunderground v.1.15,2013-05-19 18:17:00,
2013-05-19 11:23:00,53.0,47.0,30.41,North,5,13.0,17.0,80,0.00,,,0.01,Wunderground v.1.15,2013-05-19 18:23:00,
2013-05-19 11:29:00,52.7,46.7,30.40,North,5,14.0,17.0,80,0.00,,,0.01,Wunderground v.1.15,2013-05-19 18:29:00,
2013-05-19 11:35:00,52.6,46.6,30.41,North,355,15.0,20.0,80,0.00,,,0.01,Wunderground v.1.15,2013-05-19 18:35:00,
2013-05-19 11:41:00,52.5,47.2,30.40,North,355,16.0,16.0,82,0.00,,,0.01,Wunderground v.1.15,2013-05-19 18:41:00,
2013-05-19 11:47:00,52.7,47.7,30.40,North,355,15.0,17.0,83,0.00,,,0.01,Wunderground v.1.15,2013-05-19 18:47:00,
2013-05-19 11:52:00,53.0,47.7,30.41,North,351,15.0,19.0,82,0.00,,,0.01,Wunderground v.1.15,2013-05-19 18:52:00,
2013-05-19 11:58:00,52.9,47.9,30.40,NNW,344,15.0,21.0,83,0.00,,,0.01,Wunderground v.1.15,2013-05-19 18:58:00,
2013-05-19 12:03:00,52.8,48.1,30.40,North,360,16.0,20.0,84,0.00,,,0.01,Wunderground v.1.15,2013-05-19 19:03:00,
2013-05-19 12:08:00,52.8,48.1,30.40,North,355,17.0,20.0,84,0.00,,,0.01,Wunderground v.1.15,2013-05-19 19:08:00,
2013-05-19 12:14:00,52.9,48.5,30.40,North,360,17.0,19.0,85,0.00,,,0.01,Wunderground v.1.15,2013-05-19 19:14:00,
2013-05-19 12:19:00,53.0,48.3,30.40,North,355,17.0,21.0,84,0.00,,,0.01,Wunderground v.1.15,2013-05-19 19:19:00,
2013-05-19 12:25:00,53.1,48.4,30.40,North,355,17.0,19.0,84,0.00,,,0.01,Wunderground v.1.15,2013-05-19 19:25:00,
2013-05-19 12:31:00,53.0,48.3,30.40,North,349,16.0,18.0,84,0.00,,,0.01,Wunderground v.1.15,2013-05-19 19:31:00,
2013-05-19 12:36:00,52.9,48.2,30.40,NNW,348,17.0,20.0,84,0.00,,,0.01,Wunderground v.1.15,2013-05-19 19:36:00,
2013-05-19 12:42:00,53.0,48.6,30.39,North,350,17.0,17.0,85,0.00,,,0.01,Wunderground v.1.15,2013-05-19 19:42:00,
2013-05-19 12:48:00,53.4,49.0,30.39,North,350,17.0,18.0,85,0.00,,,0.01,Wunderground v.1.15,2013-05-19 19:48:00,
2013-05-19 12:54:00,53.4,49.0,30.39,North,351,17.0,20.0,85,0.00,,,0.01,Wunderground v.1.15,2013-05-19 19:54:00,
2013-05-19 13:00:00,53.4,49.0,30.39,NNW,348,17.0,23.0,85,0.00,,,0.01,Wunderground v.1.15,2013-05-19 20:00:00,
2013-05-19 13:05:00,53.4,49.0,30.39,North,355,17.0,23.0,85,0.00,,,0.01,Wunderground v.1.15,2013-05-19 20:05:00,
2013-05-19 13:11:00,53.3,48.9,30.39,North,355,17.0,21.0,85,0.00,,,0.01,Wunderground v.1.15,2013-05-19 20:11:00,
2013-05-19 13:17:00,53.3,48.6,30.39,North,355,18.0,23.0,84,0.00,,,0.01,Wunderground v.1.15,2013-05-19 20:17:00,
2013-05-19 13:22:00,53.2,48.5,30.39,NNE,15,19.0,20.0,84,0.00,,,0.01,Wunderground v.1.15,2013-05-19 20:22:00,
2013-05-19 13:27:00,53.3,48.3,30.39,NNE,27,19.0,20.0,83,0.00,,,0.01,Wunderground v.1.15,2013-05-19 20:27:00,
2013-05-19 13:33:00,53.2,48.2,30.39,North,349,18.0,23.0,83,0.00,,,0.01,Wunderground v.1.15,2013-05-19 20:33:00,
2013-05-19 13:38:00,53.6,48.2,30.39,NNE,26,18.0,23.0,82,0.00,,,0.01,Wunderground v.1.15,2013-05-19 20:38:00,
2013-05-19 13:44:00,53.8,48.4,30.39,North,5,18.0,21.0,82,0.00,,,0.01,Wunderground v.1.15,2013-05-19 20:44:00,
2013-05-19 13:49:00,53.9,47.9,30.39,North,355,18.0,23.0,80,0.00,,,0.01,Wunderground v.1.15,2013-05-19 20:49:00,
2013-05-19 13:54:00,53.9,47.9,30.39,North,355,19.0,21.0,80,0.00,,,0.01,Wunderground v.1.15,2013-05-19 20:54:00,
2013-05-19 14:00:00,54.0,48.6,30.38,North,355,19.0,19.0,82,0.00,,,0.01,Wunderground v.1.15,2013-05-19 21:00:00,
2013-05-19 14:06:00,54.1,48.7,30.38,NE,34,18.0,22.0,82,0.00,,,0.01,Wunderground v.1.15,2013-05-19 21:06:00,
2013-05-19 14:12:00,54.0,48.3,30.38,NNW,339,19.0,21.0,81,0.00,,,0.01,Wunderground v.1.15,2013-05-19 21:12:00,
2013-05-19 14:17:00,53.7,48.0,30.38,NE,36,19.0,24.0,81,0.00,,,0.01,Wunderground v.1.15,2013-05-19 21:17:00,
2013-05-19 14:22:00,53.8,48.4,30.38,North,355,19.0,21.0,82,0.00,,,0.01,Wunderground v.1.15,2013-05-19 21:22:00,
2013-05-19 14:27:00,53.8,48.4,30.38,North,5,19.0,22.0,82,0.00,,,0.01,Wunderground v.1.15,2013-05-19 21:27:00,
2013-05-19 14:33:00,53.9,48.2,30.37,North,355,21.0,25.0,81,0.00,,,0.01,Wunderground v.1.15,2013-05-19 21:33:00,
2013-05-19 14:38:00,53.7,48.3,30.37,NNW,341,21.0,25.0,82,0.00,,,0.01,Wunderground v.1.15,2013-05-19 21:38:00,
2013-05-19 14:43:00,53.7,49.0,30.37,North,360,22.0,24.0,84,0.00,,,0.01,Wunderground v.1.15,2013-05-19 21:43:00,
2013-05-19 14:49:00,53.6,48.9,30.37,North,355,21.0,26.0,84,0.00,,,0.01,Wunderground v.1.15,2013-05-19 21:49:00,
2013-05-19 14:54:00,53.7,49.0,30.37,North,360,21.0,21.0,84,0.00,,,0.01,Wunderground v.1.15,2013-05-19 21:54:00,
2013-05-19 15:00:00,53.7,49.0,30.37,North,360,21.0,24.0,84,0.00,,,0.01,Wunderground v.1.15,2013-05-19 22:00:00,
2013-05-19 15:06:00,53.8,49.1,30.37,North,5,20.0,24.0,84,0.00,,,0.01,Wunderground v.1.15,2013-05-19 22:06:00,
2013-05-19 15:11:00,53.8,48.8,30.37,North,5,20.0,23.0,83,0.00,,,0.01,Wunderground v.1.15,2013-05-19 22:11:00,
2013-05-19 15:16:00,53.6,48.6,30.37,NNW,344,20.0,23.0,83,0.00,,,0.01,Wunderground v.1.15,2013-05-19 22:16:00,
2013-05-19 15:22:00,53.6,48.6,30.37,North,355,19.0,24.0,83,0.00,,,0.01,Wunderground v.1.15,2013-05-19 22:22:00,
2013-05-19 15:28:00,53.5,48.5,30.37,North,5,20.0,24.0,83,0.00,,,0.01,Wunderground v.1.15,2013-05-19 22:28:00,
2013-05-19 15:33:00,53.5,48.5,30.37,North,355,20.0,24.0,83,0.00,,,0.01,Wunderground v.1.15,2013-05-19 22:33:00,
2013-05-19 15:39:00,53.6,48.9,30.36,North,355,20.0,24.0,84,0.00,,,0.01,Wunderground v.1.15,2013-05-19 22:39:00,
2013-05-19 15:45:00,53.3,48.6,30.37,North,9,20.0,24.0,84,0.00,,,0.01,Wunderground v.1.15,2013-05-19 22:45:00,
2013-05-19 15:50:00,53.3,48.6,30.36,North,355,21.0,22.0,84,0.00,,,0.01,Wunderground v.1.15,2013-05-19 22:50:00,
2013-05-19 15:55:00,53.4,48.7,30.36,North,355,20.0,23.0,84,0.00,,,0.01,Wunderground v.1.15,2013-05-19 22:55:00,
2013-05-19 16:00:00,53.3,48.6,30.36,North,5,20.0,24.0,84,0.00,,,0.01,Wunderground v.1.15,2013-05-19 23:00:00,
2013-05-19 16:05:00,53.3,48.3,30.36,North,355,21.0,24.0,83,0.00,,,0.01,Wunderground v.1.15,2013-05-19 23:05:00,
2013-05-19 16:10:00,53.3,48.3,30.36,NE,35,21.0,24.0,83,0.00,,,0.01,Wunderground v.1.15,2013-05-19 23:10:00,
2013-05-19 16:16:00,53.4,48.0,30.36,NNE,17,21.0,27.0,82,0.00,,,0.01,Wunderground v.1.15,2013-05-19 23:16:00,
2013-05-19 16:22:00,53.4,48.0,30.35,North,5,20.0,21.0,82,0.00,,,0.01,Wunderground v.1.15,2013-05-19 23:22:00,
2013-05-19 16:28:00,53.4,48.0,30.35,North,360,20.0,22.0,82,0.00,,,0.01,Wunderground v.1.15,2013-05-19 23:28:00,
2013-05-19 16:34:00,53.3,48.3,30.35,North,355,20.0,22.0,83,0.00,,,0.01,Wunderground v.1.15,2013-05-19 23:34:00,
2013-05-19 16:39:00,53.3,48.3,30.35,NNW,348,20.0,24.0,83,0.00,,,0.01,Wunderground v.1.15,2013-05-19 23:39:00,
2013-05-19 16:44:00,53.2,48.5,30.35,North,5,20.0,24.0,84,0.00,,,0.01,Wunderground v.1.15,2013-05-19 23:44:00,
2013-05-19 16:50:00,53.0,48.3,30.35,North,360,20.0,20.0,84,0.00,,,0.01,Wunderground v.1.15,2013-05-19 23:50:00,
2013-05-19 16:55:00,52.9,48.5,30.35,North,355,21.0,24.0,85,0.00,,,0.01,Wunderground v.1.15,2013-05-19 23:55:00,
2013-05-19 17:00:00,53.0,48.9,30.35,North,355,21.0,21.0,86,0.00,,,0.01,Wunderground v.1.15,2013-05-20 00:00:00,
2013-05-19 17:06:00,52.9,48.5,30.35,North,355,21.0,24.0,85,0.00,,,0.01,Wunderground v.1.15,2013-05-20 00:06:00,
2013-05-19 17:11:00,52.8,48.7,30.34,North,5,21.0,24.0,86,0.00,,,0.01,Wunderground v.1.15,2013-05-20 00:11:00,
2013-05-19 17:17:00,52.8,48.7,30.34,North,5,20.0,24.0,86,0.00,,,0.01,Wunderground v.1.15,2013-05-20 00:17:00,
2013-05-19 17:23:00,52.8,49.0,30.34,North,351,20.0,25.0,87,0.00,,,0.01,Wunderground v.1.15,2013-05-20 00:23:00,
2013-05-19 17:28:00,52.7,48.6,30.34,North,355,19.0,25.0,86,0.00,,,0.01,Wunderground v.1.15,2013-05-20 00:28:00,
2013-05-19 17:34:00,53.0,48.9,30.34,North,9,19.0,22.0,86,0.00,,,0.01,Wunderground v.1.15,2013-05-20 00:34:00,
2013-05-19 17:39:00,52.6,48.5,30.33,North,355,19.0,24.0,86,0.00,,,0.01,Wunderground v.1.15,2013-05-20 00:39:00,
2013-05-19 17:45:00,52.6,48.2,30.33,NNW,347,21.0,26.0,85,0.00,,,0.01,Wunderground v.1.15,2013-05-20 00:45:00,
2013-05-19 17:50:00,52.6,48.2,30.33,North,360,21.0,21.0,85,0.00,,,0.01,Wunderground v.1.15,2013-05-20 00:50:00,
2013-05-19 17:56:00,52.6,48.2,30.33,North,9,20.0,25.0,85,0.00,,,0.01,Wunderground v.1.15,2013-05-20 00:56:00,
2013-05-19 18:01:00,52.6,48.2,30.33,North,355,21.0,21.0,85,0.00,,,0.01,Wunderground v.1.15,2013-05-20 01:01:00,
2013-05-19 18:07:00,52.5,48.4,30.33,North,355,20.0,24.0,86,0.00,,,0.01,Wunderground v.1.15,2013-05-20 01:07:00,
2013-05-19 18:13:00,52.4,48.3,30.33,North,355,20.0,22.0,86,0.00,,,0.01,Wunderground v.1.15,2013-05-20 01:13:00,
2013-05-19 18:19:00,52.4,48.3,30.32,North,360,19.0,22.0,86,0.00,,,0.01,Wunderground v.1.15,2013-05-20 01:19:00,
2013-05-19 18:24:00,52.4,48.3,30.32,North,360,18.0,24.0,86,0.00,,,0.01,Wunderground v.1.15,2013-05-20 01:24:00,
2013-05-19 18:30:00,52.3,48.2,30.32,NE,46,17.0,17.0,86,0.00,,,0.01,Wunderground v.1.15,2013-05-20 01:30:00,
2013-05-19 18:35:00,52.3,48.2,30.32,North,9,17.0,22.0,86,0.00,,,0.01,Wunderground v.1.15,2013-05-20 01:35:00,
2013-05-19 18:41:00,52.4,48.0,30.32,NNE,15,17.0,22.0,85,0.00,,,0.01,Wunderground v.1.15,2013-05-20 01:41:00,
2013-05-19 18:47:00,52.2,48.1,30.32,NNW,342,17.0,22.0,86,0.00,,,0.01,Wunderground v.1.15,2013-05-20 01:47:00,
2013-05-19 18:52:00,52.2,47.5,30.32,North,355,17.0,21.0,84,0.00,,,0.01,Wunderground v.1.15,2013-05-20 01:52:00,
2013-05-19 18:58:00,52.2,47.5,30.32,North,5,17.0,26.0,84,0.00,,,0.01,Wunderground v.1.15,2013-05-20 01:58:00,
2013-05-19 19:04:00,52.1,47.4,30.32,NE,35,16.0,18.0,84,0.00,,,0.01,Wunderground v.1.15,2013-05-20 02:04:00,
2013-05-19 19:09:00,52.2,47.5,30.32,NE,40,14.0,18.0,84,0.00,,,0.01,Wunderground v.1.15,2013-05-20 02:09:00,
2013-05-19 19:15:00,52.1,47.7,30.32,North,355,13.0,21.0,85,0.00,,,0.01,Wunderground v.1.15,2013-05-20 02:15:00,
2013-05-19 19:21:00,52.1,47.7,30.32,NNE,24,12.0,14.0,85,0.00,,,0.01,Wunderground v.1.15,2013-05-20 02:21:00,
2013-05-19 19:26:00,52.0,47.6,30.32,NNE,33,11.0,15.0,85,0.00,,,0.01,Wunderground v.1.15,2013-05-20 02:26:00,
2013-05-19 19:32:00,51.9,47.5,30.32,North,11,10.0,16.0,85,0.00,,,0.01,Wunderground v.1.15,2013-05-20 02:32:00,
2013-05-19 19:38:00,52.0,47.9,30.32,NE,38,8.0,16.0,86,0.00,,,0.01,Wunderground v.1.15,2013-05-20 02:38:00,
2013-05-19 19:44:00,51.9,47.8,30.32,NNE,22,9.0,13.0,86,0.00,,,0.01,Wunderground v.1.15,2013-05-20 02:44:00,
2013-05-19 19:50:00,51.5,47.1,30.32,NNW,345,10.0,10.0,85,0.00,,,0.01,Wunderground v.1.15,2013-05-20 02:50:00,
2013-05-19 19:55:00,51.5,47.5,30.32,North,5,10.0,12.0,86,0.00,,,0.01,Wunderground v.1.15,2013-05-20 02:55:00,
2013-05-19 20:00:00,51.4,47.4,30.32,NNW,344,10.0,13.0,86,0.00,,,0.01,Wunderground v.1.15,2013-05-20 03:00:00,
2013-05-19 20:06:00,51.1,46.7,30.32,North,355,11.0,15.0,85,0.00,,,0.01,Wunderground v.1.15,2013-05-20 03:06:00,
2013-05-19 20:12:00,51.0,46.6,30.32,NNE,18,11.0,17.0,85,0.00,,,0.01,Wunderground v.1.15,2013-05-20 03:12:00,
2013-05-19 20:17:00,50.9,46.9,30.32,NE,43,9.0,17.0,86,0.00,,,0.01,Wunderground v.1.15,2013-05-20 03:17:00,
2013-05-19 20:23:00,50.8,47.1,30.32,North,350,9.0,10.0,87,0.00,,,0.01,Wunderground v.1.15,2013-05-20 03:23:00,
2013-05-19 20:29:00,50.4,46.4,30.32,North,5,10.0,14.0,86,0.00,,,0.01,Wunderground v.1.15,2013-05-20 03:29:00,
2013-05-19 20:34:00,50.4,46.4,30.32,North,355,11.0,14.0,86,0.00,,,0.01,Wunderground v.1.15,2013-05-20 03:34:00,
2013-05-19 20:40:00,50.3,46.3,30.32,NNW,346,9.0,9.0,86,0.00,,,0.01,Wunderground v.1.15,2013-05-20 03:40:00,
2013-05-19 20:46:00,50.2,46.5,30.31,NNW,348,9.0,10.0,87,0.00,,,0.01,Wunderground v.1.15,2013-05-20 03:46:00,
2013-05-19 20:51:00,50.1,46.4,30.31,NNE,32,8.0,8.0,87,0.00,,,0.01,Wunderground v.1.15,2013-05-20 03:51:00,
2013-05-19 20:57:00,50.1,46.4,30.31,North,5,8.0,12.0,87,0.00,,,0.01,Wunderground v.1.15,2013-05-20 03:57:00,
2013-05-19 21:01:00,50.3,46.6,30.31,NE,36,9.0,9.0,87,0.00,,,0.01,Wunderground v.1.15,2013-05-20 04:01:00,
2013-05-19 21:02:00,50.3,46.6,30.31,North,5,9.0,9.0,87,0.00,,,0.01,Wunderground v.1.15,2013-05-20 04:02:00,
2013-05-19 21:03:00,50.3,46.6,30.31,ENE,65,9.0,9.0,87,0.00,,,0.01,Wunderground v.1.15,2013-05-20 04:03:00,
2013-05-19 21:05:00,50.3,46.6,30.31,NE,42,9.0,10.0,87,0.00,,,0.01,Wunderground v.1.15,2013-05-20 04:05:00,
2013-05-19 21:07:00,50.3,46.6,30.31,NE,52,8.0,10.0,87,0.00,,,0.01,Wunderground v.1.15,2013-05-20 04:07:00,
2013-05-19 21:13:00,49.9,46.2,30.31,ENE,62,8.0,9.0,87,0.00,,,0.01,Wunderground v.1.15,2013-05-20 04:13:00,
2013-05-19 21:19:00,49.8,45.8,30.31,NE,46,7.0,9.0,86,0.00,,,0.01,Wunderground v.1.15,2013-05-20 04:19:00,
2013-05-19 21:25:00,49.7,46.0,30.31,NE,46,6.0,7.0,87,0.00,,,0.01,Wunderground v.1.15,2013-05-20 04:25:00,
2013-05-19 21:31:00,49.6,45.9,30.31,NNE,15,5.0,5.0,87,0.00,,,0.01,Wunderground v.1.15,2013-05-20 04:31:00,
2013-05-19 21:36:00,49.7,46.0,30.31,NE,46,5.0,7.0,87,0.00,,,0.01,Wunderground v.1.15,2013-05-20 04:36:00,
2013-05-19 21:42:00,50.0,46.6,30.32,NNE,13,6.0,8.0,88,0.00,,,0.01,Wunderground v.1.15,2013-05-20 04:42:00,
2013-05-19 21:47:00,50.1,46.7,30.31,ENE,61,7.0,9.0,88,0.00,,,0.01,Wunderground v.1.15,2013-05-20 04:47:00,
2013-05-19 21:53:00,50.0,46.6,30.31,NE,38,7.0,8.0,88,0.00,,,0.01,Wunderground v.1.15,2013-05-20 04:53:00,
2013-05-19 21:58:00,49.9,46.5,30.31,NE,39,6.0,8.0,88,0.00,,,0.01,Wunderground v.1.15,2013-05-20 04:58:00,
2013-05-19 22:03:00,49.9,46.5,30.31,NNE,27,6.0,9.0,88,0.00,,,0.01,Wunderground v.1.15,2013-05-20 05:03:00,
2013-05-19 22:08:00,49.8,46.4,30.31,ENE,73,5.0,9.0,88,0.00,,,0.01,Wunderground v.1.15,2013-05-20 05:08:00,
2013-05-19 22:13:00,49.9,46.8,30.32,NE,47,5.0,7.0,89,0.00,,,0.01,Wunderground v.1.15,2013-05-20 05:13:00,
2013-05-19 22:19:00,50.1,47.0,30.31,ENE,57,6.0,7.0,89,0.00,,,0.01,Wunderground v.1.15,2013-05-20 05:19:00,
2013-05-19 22:24:00,50.1,47.3,30.31,North,360,6.0,9.0,90,0.00,,,0.01,Wunderground v.1.15,2013-05-20 05:24:00,
2013-05-19 22:29:00,50.1,47.3,30.31,NNE,16,6.0,9.0,90,0.00,,,0.01,Wunderground v.1.15,2013-05-20 05:29:00,
2013-05-19 22:35:00,50.0,47.2,30.31,NNE,24,5.0,9.0,90,0.00,,,0.01,Wunderground v.1.15,2013-05-20 05:35:00,
2013-05-19 22:41:00,49.9,47.1,30.31,North,11,4.0,6.0,90,0.00,,,0.01,Wunderground v.1.15,2013-05-20 05:41:00,
2013-05-19 22:47:00,50.0,47.2,30.31,NNE,33,5.0,8.0,90,0.00,,,0.01,Wunderground v.1.15,2013-05-20 05:47:00,
2013-05-19 22:53:00,50.1,47.6,30.31,North,5,5.0,8.0,91,0.00,,,0.01,Wunderground v.1.15,2013-05-20 05:53:00,
2013-05-19 22:59:00,50.3,47.8,30.31,NNW,347,5.0,8.0,91,0.00,,,0.01,Wunderground v.1.15,2013-05-20 05:59:00,
2013-05-19 23:05:00,50.4,47.9,30.31,ENE,66,7.0,10.0,91,0.00,,,0.01,Wunderground v.1.15,2013-05-20 06:05:00,
2013-05-19 23:10:00,50.4,47.9,30.31,NNW,347,7.0,9.0,91,0.00,,,0.01,Wunderground v.1.15,2013-05-20 06:10:00,
2013-05-19 23:15:00,50.4,47.9,30.31,NE,44,7.0,11.0,91,0.00,,,0.01,Wunderground v.1.15,2013-05-20 06:15:00,
2013-05-19 23:21:00,50.3,47.8,30.31,NNW,340,8.0,9.0,91,0.00,,,0.01,Wunderground v.1.15,2013-05-20 06:21:00,
2013-05-19 23:26:00,50.2,47.7,30.32,North,355,9.0,17.0,91,0.00,,,0.01,Wunderground v.1.15,2013-05-20 06:26:00,
2013-05-19 23:32:00,50.1,47.6,30.32,North,350,9.0,9.0,91,0.00,,,0.01,Wunderground v.1.15,2013-05-20 06:32:00,
2013-05-19 23:37:00,50.0,47.8,30.32,North,350,9.0,15.0,92,0.00,,,0.01,Wunderground v.1.15,2013-05-20 06:37:00,
2013-05-19 23:43:00,50.0,47.5,30.32,North,355,9.0,13.0,91,0.00,,,0.01,Wunderground v.1.15,2013-05-20 06:43:00,
2013-05-19 23:48:00,50.0,47.5,30.33,North,360,8.0,14.0,91,0.00,,,0.01,Wunderground v.1.15,2013-05-20 06:48:00,
2013-05-19 23:54:00,49.9,47.7,30.32,NNE,26,7.0,9.0,92,0.00,,,0.01,Wunderground v.1.15,2013-05-20 06:54:00,
2013-05-19 23:59:00,49.8,47.3,30.32,North,5,8.0,11.0,91,0.00,,,0.01,Wunderground v.1.15,2013-05-20 06:59:00,